createdAt,value
2023-01-10T00:00:43.526Z,94341.75
2023-01-10T00:03:11.533Z,94351.16
2023-01-10T00:05:39.764Z,94371.28
2023-01-10T00:08:08.147Z,94351.13
2023-01-10T00:10:35.799Z,94372.03
2023-01-10T00:13:21.309Z,94345.84
2023-01-10T00:15:48.636Z,94348.22
2023-01-10T00:18:15.501Z,94357.66
2023-01-10T00:20:44.628Z,94349.28
2023-01-10T00:23:11.561Z,94350.34
2023-01-10T00:25:38.836Z,94370.50
2023-01-10T00:28:19.904Z,94354.81
2023-01-10T00:31:06.820Z,94364.22
2023-01-10T00:33:35.833Z,94351.41
2023-01-10T00:36:07.512Z,94373.53
2023-01-10T00:38:35.731Z,94307.22
2023-01-10T00:41:03.983Z,94351.41
2023-01-10T00:43:49.173Z,94333.88
2023-01-10T00:46:16.093Z,94329.75
2023-01-10T00:48:42.851Z,94300.69
2023-01-10T00:51:09.696Z,94307.25
2023-01-10T00:53:36.391Z,94306.38
2023-01-10T00:56:03.230Z,94336.25
2023-01-10T00:58:29.906Z,94329.66
2023-01-10T01:00:56.668Z,94341.19
2023-01-10T01:03:23.539Z,94325.53
2023-01-10T01:05:50.874Z,94308.81
2023-01-10T01:08:18.943Z,94328.41
2023-01-10T01:10:46.775Z,94296.00
2023-01-10T01:13:21.328Z,94304.09
2023-01-10T01:15:49.292Z,94306.69
2023-01-10T01:18:18.874Z,94300.91
2023-01-10T01:20:47.628Z,94295.44
2023-01-10T01:23:15.400Z,94282.69
2023-01-10T01:25:42.394Z,94279.03
2023-01-10T01:28:12.335Z,94297.03
2023-01-10T01:30:39.165Z,94316.59
2023-01-10T01:33:05.870Z,94275.59
2023-01-10T01:35:33.498Z,94356.47
2023-01-10T01:38:00.409Z,94317.44
2023-01-10T01:40:27.367Z,94334.34
2023-01-10T01:42:56.032Z,94281.59
2023-01-10T01:45:22.784Z,94297.31
2023-01-10T01:47:52.184Z,94311.41
2023-01-10T01:50:29.527Z,94290.50
2023-01-10T01:52:59.415Z,94303.56
2023-01-10T01:55:28.700Z,94287.91
2023-01-10T01:57:58.731Z,94292.59
2023-01-10T02:00:25.507Z,94277.91
2023-01-10T02:03:02.688Z,94268.75
2023-01-10T02:05:34.305Z,94273.13
2023-01-10T02:08:02.442Z,94273.22
2023-01-10T02:10:52.790Z,94271.06
2023-01-10T02:13:22.568Z,94240.78
2023-01-10T02:15:49.740Z,94249.13
2023-01-10T02:18:17.922Z,94238.03
2023-01-10T02:20:48.052Z,94245.50
2023-01-10T02:23:34.421Z,94240.28
2023-01-10T02:26:19.017Z,94258.06
2023-01-10T02:28:57.840Z,94231.41
2023-01-10T02:32:01.795Z,94232.38
2023-01-10T02:34:53.142Z,94231.31
2023-01-10T02:37:43.955Z,94221.66
2023-01-10T02:40:27.225Z,94234.94
2023-01-10T02:43:09.939Z,94227.19
2023-01-10T02:45:43.486Z,94238.94
2023-01-10T02:48:10.285Z,94217.22
2023-01-10T02:50:42.942Z,94238.63
2023-01-10T02:53:39.807Z,94237.31
2023-01-10T02:56:27.606Z,94234.19
2023-01-10T02:59:18.017Z,94239.47
2023-01-10T03:01:47.730Z,94229.53
2023-01-10T03:04:33.020Z,94232.44
2023-01-10T03:07:23.372Z,94232.94
2023-01-10T03:09:53.197Z,94236.59
2023-01-10T03:12:27.290Z,94243.88
2023-01-10T03:14:56.817Z,94245.50
2023-01-10T03:17:26.158Z,94245.28
2023-01-10T03:19:57.547Z,94258.63
2023-01-10T03:22:26.394Z,94243.47
2023-01-10T03:24:56.164Z,94242.94
2023-01-10T03:27:38.607Z,94247.56
2023-01-10T03:30:08.408Z,94265.38
2023-01-10T03:32:35.771Z,94250.22
2023-01-10T03:35:04.637Z,94250.19
2023-01-10T03:37:36.735Z,94253.22
2023-01-10T03:40:38.479Z,94248.16
2023-01-10T03:43:45.981Z,94246.97
2023-01-10T03:46:47.139Z,94259.28
2023-01-10T03:49:16.271Z,94265.81
2023-01-10T03:51:44.261Z,94257.44
2023-01-10T03:54:12.251Z,94243.91
2023-01-10T03:56:52.585Z,94246.59
2023-01-10T03:59:22.504Z,94232.03
2023-01-10T04:01:49.313Z,94216.09
2023-01-10T04:04:16.178Z,94213.03
2023-01-10T04:06:42.931Z,94192.09
2023-01-10T04:09:10.327Z,94173.84
2023-01-10T04:11:37.368Z,94167.00
2023-01-10T04:14:05.308Z,94144.75
2023-01-10T04:16:32.081Z,94165.06
2023-01-10T04:18:58.945Z,94171.28
2023-01-10T04:21:25.674Z,94170.53
2023-01-10T04:23:52.421Z,94167.16
2023-01-10T04:26:19.143Z,94177.31
2023-01-10T04:28:45.935Z,94210.53
2023-01-10T04:31:12.773Z,94230.41
2023-01-10T04:33:41.288Z,94247.13
2023-01-10T04:36:08.438Z,94251.81
2023-01-10T04:38:35.195Z,94244.47
2023-01-10T04:41:01.912Z,94264.25
2023-01-10T04:43:28.828Z,94236.28
2023-01-10T04:45:55.595Z,94265.31
2023-01-10T04:48:22.550Z,94253.34
2023-01-10T04:50:51.119Z,94226.63
2023-01-10T04:53:18.514Z,94238.94
2023-01-10T04:55:45.790Z,94227.84
2023-01-10T04:58:13.245Z,94228.16
2023-01-10T05:00:40.400Z,94239.22
2023-01-10T05:03:07.284Z,94238.25
2023-01-10T05:05:34.200Z,94213.09
2023-01-10T05:08:01.049Z,94207.25
2023-01-10T05:10:27.992Z,94218.16
2023-01-10T05:12:54.699Z,94199.53
2023-01-10T05:15:23.169Z,94196.78
2023-01-10T05:17:51.390Z,94196.22
2023-01-10T05:20:18.223Z,94200.69
2023-01-10T05:22:45.886Z,94190.59
2023-01-10T05:25:12.728Z,94187.94
2023-01-10T05:27:42.222Z,94172.22
2023-01-10T05:30:13.186Z,94188.97
2023-01-10T05:32:40.096Z,94197.38
2023-01-10T05:35:07.147Z,94202.59
2023-01-10T05:37:34.044Z,94198.72
2023-01-10T05:40:00.859Z,94192.94
2023-01-10T05:42:27.781Z,94205.56
2023-01-10T05:44:54.485Z,94208.97
2023-01-10T05:47:21.443Z,94207.66
2023-01-10T05:49:48.178Z,94202.56
2023-01-10T05:52:14.931Z,94208.97
2023-01-10T05:54:42.707Z,94212.72
2023-01-10T05:57:09.566Z,94213.94
2023-01-10T05:59:36.386Z,94202.13
2023-01-10T06:02:03.176Z,94196.38
2023-01-10T06:04:30.048Z,94201.19
2023-01-10T06:06:56.950Z,94220.78
2023-01-10T06:09:23.748Z,94200.94
2023-01-10T06:11:50.552Z,94212.94
2023-01-10T06:14:19.590Z,94222.47
2023-01-10T06:16:47.116Z,94218.94
2023-01-10T06:19:14.520Z,94221.88
2023-01-10T06:21:41.437Z,94208.75
2023-01-10T06:24:08.537Z,94215.16
2023-01-10T06:26:35.606Z,94214.34
2023-01-10T06:29:02.369Z,94203.50
2023-01-10T06:31:29.131Z,94206.56
2023-01-10T06:33:56.113Z,94204.97
2023-01-10T06:36:22.848Z,94197.09
2023-01-10T06:38:49.682Z,94196.00
2023-01-10T06:41:16.766Z,94185.03
2023-01-10T06:43:46.306Z,94202.78
2023-01-10T06:46:16.468Z,94193.09
2023-01-10T06:48:45.762Z,94197.94
2023-01-10T06:51:19.164Z,94198.41
2023-01-10T06:53:46.748Z,94198.66
2023-01-10T06:56:13.480Z,94201.88
2023-01-10T06:58:40.396Z,94199.91
2023-01-10T07:01:14.138Z,94194.81
2023-01-10T07:03:41.177Z,94192.53
2023-01-10T07:06:11.606Z,94194.38
2023-01-10T07:08:40.634Z,94190.03
2023-01-10T07:11:08.809Z,94183.97
2023-01-10T07:13:35.886Z,94187.53
2023-01-10T07:16:14.410Z,94180.66
2023-01-10T07:18:42.885Z,94180.16
2023-01-10T07:21:10.662Z,94180.97
2023-01-10T07:23:38.419Z,94167.34
2023-01-10T07:26:06.961Z,94173.94
2023-01-10T07:28:36.715Z,94177.75
2023-01-10T07:31:05.774Z,94179.81
2023-01-10T07:33:32.602Z,94170.78
2023-01-10T07:36:01.272Z,94167.81
2023-01-10T07:38:28.330Z,94165.91
2023-01-10T07:40:55.369Z,94155.72
2023-01-10T07:43:22.074Z,94164.75
2023-01-10T07:45:48.903Z,94170.06
2023-01-10T07:48:15.689Z,94157.47
2023-01-10T07:50:42.593Z,94153.63
2023-01-10T07:53:09.753Z,94161.03
2023-01-10T07:55:39.191Z,94162.50
2023-01-10T07:58:08.069Z,94159.53
2023-01-10T08:00:35.489Z,94158.28
2023-01-10T08:03:02.466Z,94157.38
2023-01-10T08:05:29.487Z,94154.88
2023-01-10T08:07:59.978Z,94167.78
2023-01-10T08:10:27.236Z,94156.97
2023-01-10T08:12:54.119Z,94156.44
2023-01-10T08:15:20.913Z,94156.16
2023-01-10T08:17:48.206Z,94149.94
2023-01-10T08:20:15.201Z,94156.94
2023-01-10T08:22:42.038Z,94152.28
2023-01-10T08:25:09.402Z,94147.25
2023-01-10T08:27:36.328Z,94155.19
2023-01-10T08:30:06.502Z,94131.50
2023-01-10T08:32:33.385Z,94128.69
2023-01-10T08:35:00.181Z,94133.78
2023-01-10T08:37:27.069Z,94145.91
2023-01-10T08:39:53.782Z,94133.06
2023-01-10T08:42:20.937Z,94110.72
2023-01-10T08:44:47.632Z,94117.59
2023-01-10T08:47:15.114Z,94104.25
2023-01-10T08:50:00.526Z,94098.13
2023-01-10T08:52:27.376Z,94096.69
2023-01-10T08:54:54.061Z,94109.34
2023-01-10T08:57:21.084Z,94101.50
2023-01-10T08:59:47.797Z,94101.25
2023-01-10T09:02:15.059Z,94089.16
2023-01-10T09:04:41.860Z,94090.09
2023-01-10T09:07:08.672Z,94092.97
2023-01-10T09:09:36.893Z,94082.69
2023-01-10T09:12:24.168Z,94069.88
2023-01-10T09:14:51.127Z,94084.06
2023-01-10T09:17:17.858Z,94087.09
2023-01-10T09:19:44.579Z,94092.31
2023-01-10T09:22:11.660Z,94093.69
2023-01-10T09:24:39.279Z,94088.16
2023-01-10T09:27:06.119Z,94079.00
2023-01-10T09:29:32.904Z,94079.41
2023-01-10T09:31:59.808Z,94073.88
2023-01-10T09:34:26.670Z,94075.28
2023-01-10T09:36:54.270Z,94077.38
2023-01-10T09:39:21.601Z,94065.75
2023-01-10T09:41:57.467Z,94066.94
2023-01-10T09:44:24.156Z,94060.19
2023-01-10T09:46:57.913Z,94041.88
2023-01-10T09:49:42.815Z,94035.63
2023-01-10T09:52:22.288Z,94039.94
2023-01-10T09:54:52.303Z,94037.91
2023-01-10T09:57:21.294Z,94039.00
2023-01-10T09:59:51.695Z,94043.41
2023-01-10T10:02:32.718Z,94022.19
2023-01-10T10:05:26.732Z,94026.72
2023-01-10T10:07:58.935Z,94023.19
2023-01-10T10:10:35.055Z,94019.88
2023-01-10T10:13:29.987Z,94002.41
2023-01-10T10:16:00.277Z,94023.72
2023-01-10T10:18:58.217Z,94027.31
2023-01-10T10:21:48.178Z,94026.31
2023-01-10T10:24:26.657Z,94023.56
2023-01-10T10:27:08.559Z,94019.13
2023-01-10T10:29:50.799Z,94018.53
2023-01-10T10:32:28.246Z,94018.28
2023-01-10T10:35:03.856Z,94008.63
2023-01-10T10:37:35.951Z,94005.06
2023-01-10T10:40:05.476Z,94002.94
2023-01-10T10:42:38.328Z,93999.28
2023-01-10T10:45:17.475Z,93993.47
2023-01-10T10:47:50.953Z,93995.22
2023-01-10T10:50:35.503Z,93996.00
2023-01-10T10:53:04.807Z,93977.47
2023-01-10T10:55:38.490Z,93951.81
2023-01-10T10:58:07.805Z,93983.22
2023-01-10T11:00:35.121Z,93991.38
2023-01-10T11:03:13.901Z,93994.47
2023-01-10T11:05:46.460Z,93996.22
2023-01-10T11:08:17.291Z,93984.91
2023-01-10T11:10:52.341Z,93975.41
2023-01-10T11:13:37.732Z,93966.81
2023-01-10T11:16:08.076Z,93967.84
2023-01-10T11:18:34.987Z,93959.78
2023-01-10T11:21:15.898Z,93965.34
2023-01-10T11:24:35.348Z,93965.94
2023-01-10T11:27:14.301Z,93968.09
2023-01-10T11:29:47.553Z,93964.16
2023-01-10T11:32:17.272Z,93961.16
2023-01-10T11:34:53.922Z,93958.25
2023-01-10T11:37:32.764Z,93962.38
2023-01-10T11:40:14.863Z,93961.16
2023-01-10T11:42:42.056Z,93969.47
2023-01-10T11:45:17.717Z,93968.28
2023-01-10T11:47:54.497Z,93960.88
2023-01-10T11:50:34.909Z,93957.41
2023-01-10T11:53:02.243Z,93953.44
2023-01-10T11:55:32.132Z,93949.88
2023-01-10T11:58:15.122Z,93961.78
2023-01-10T12:00:50.880Z,93959.88
2023-01-10T12:03:29.504Z,93947.63
2023-01-10T12:06:06.206Z,93942.94
2023-01-10T12:08:38.933Z,93952.78
2023-01-10T12:11:30.220Z,93949.97
2023-01-10T12:14:00.145Z,93946.41
2023-01-10T12:16:27.985Z,93952.16
2023-01-10T12:18:59.860Z,93953.66
2023-01-10T12:21:29.594Z,93963.38
2023-01-10T12:24:01.213Z,93953.56
2023-01-10T12:26:31.660Z,93960.00
2023-01-10T12:29:08.656Z,93955.06
2023-01-10T12:31:39.169Z,93971.81
2023-01-10T12:34:14.759Z,93968.53
2023-01-10T12:37:22.596Z,93972.97
2023-01-10T12:40:04.271Z,93959.34
2023-01-10T12:43:07.987Z,93952.75
2023-01-10T12:45:41.125Z,93944.66
2023-01-10T12:48:23.204Z,93941.97
2023-01-10T12:51:07.497Z,93942.09
2023-01-10T12:53:39.862Z,93950.69
2023-01-10T12:56:13.711Z,93952.94
2023-01-10T12:58:44.247Z,93961.59
2023-01-10T13:01:35.096Z,93951.81
2023-01-10T13:04:15.597Z,93963.03
2023-01-10T13:06:44.233Z,93966.91
2023-01-10T13:09:20.245Z,93964.28
2023-01-10T13:12:10.908Z,93961.59
2023-01-10T13:14:50.900Z,93965.94
2023-01-10T13:17:32.914Z,93964.00
2023-01-10T13:20:18.530Z,93961.78
2023-01-10T13:22:55.620Z,93968.94
2023-01-10T13:25:28.748Z,93970.78
2023-01-10T13:27:58.259Z,93975.03
2023-01-10T13:30:45.825Z,93973.34
2023-01-10T13:33:21.905Z,93964.28
2023-01-10T13:35:50.955Z,93977.34
2023-01-10T13:38:19.415Z,93980.47
2023-01-10T13:41:02.040Z,93967.81
2023-01-10T13:44:08.548Z,93962.84
2023-01-10T13:46:47.502Z,93966.66
2023-01-10T13:49:14.220Z,93975.41
2023-01-10T13:52:20.782Z,93977.38
2023-01-10T13:55:03.834Z,93973.47
2023-01-10T13:57:53.488Z,93978.56
2023-01-10T14:01:01.177Z,93973.84
2023-01-10T14:03:43.112Z,93989.91
2023-01-10T14:06:31.721Z,93966.75
2023-01-10T14:09:01.785Z,93980.38
2023-01-10T14:11:43.734Z,93978.31
2023-01-10T14:14:19.708Z,93982.66
2023-01-10T14:16:53.264Z,93959.41
2023-01-10T14:19:23.488Z,93971.78
2023-01-10T14:21:57.015Z,93975.41
2023-01-10T14:24:45.603Z,93984.41
2023-01-10T14:27:18.655Z,93992.97
2023-01-10T14:29:51.480Z,93997.88
2023-01-10T14:32:31.329Z,93990.34
2023-01-10T14:35:02.711Z,93983.03
2023-01-10T14:37:37.491Z,93976.19
2023-01-10T14:40:25.833Z,93980.75
2023-01-10T14:42:56.092Z,93975.72
2023-01-10T14:45:31.621Z,93988.47
2023-01-10T14:47:58.516Z,93994.59
2023-01-10T14:50:28.781Z,93997.41
2023-01-10T14:52:56.259Z,94003.06
2023-01-10T14:55:23.304Z,94006.25
2023-01-10T14:57:58.589Z,94008.31
2023-01-10T15:00:31.446Z,94007.41
2023-01-10T15:03:03.729Z,94028.88
2023-01-10T15:05:36.609Z,94032.75
2023-01-10T15:08:28.155Z,94028.03
2023-01-10T15:11:01.081Z,94039.22
2023-01-10T15:13:29.991Z,94036.16
2023-01-10T15:15:57.715Z,94035.66
2023-01-10T15:18:33.945Z,94023.50
2023-01-10T15:21:01.474Z,94036.75
2023-01-10T15:23:40.141Z,94048.19
2023-01-10T15:26:11.042Z,94049.56
2023-01-10T15:28:38.435Z,94055.66
2023-01-10T15:31:06.663Z,94050.75
2023-01-10T15:33:36.498Z,94062.09
2023-01-10T15:36:12.553Z,94069.09
2023-01-10T15:38:44.155Z,94078.22
2023-01-10T15:41:20.405Z,94078.56
2023-01-10T15:43:50.130Z,94090.19
2023-01-10T15:46:22.434Z,94089.63
2023-01-10T15:49:04.432Z,94093.00
2023-01-10T15:51:34.355Z,94100.56
2023-01-10T15:54:04.076Z,94103.84
2023-01-10T15:56:56.569Z,94109.53
2023-01-10T15:59:36.198Z,94117.50
2023-01-10T16:02:12.561Z,94116.81
2023-01-10T16:04:41.271Z,94127.16
2023-01-10T16:07:30.002Z,94136.19
2023-01-10T16:10:14.658Z,94122.78
2023-01-10T16:13:02.903Z,94142.09
2023-01-10T16:15:32.388Z,94149.94
2023-01-10T16:17:59.348Z,94151.50
2023-01-10T16:20:29.920Z,94154.88
2023-01-10T16:22:59.886Z,94165.34
2023-01-10T16:25:44.770Z,94166.38
2023-01-10T16:28:13.883Z,94171.31
2023-01-10T16:30:45.178Z,94183.19
2023-01-10T16:33:18.191Z,94175.13
2023-01-10T16:35:46.978Z,94193.94
2023-01-10T16:38:15.783Z,94183.31
2023-01-10T16:40:46.782Z,94197.06
2023-01-10T16:43:19.454Z,94202.75
2023-01-10T16:45:47.061Z,94197.59
2023-01-10T16:48:15.100Z,94195.53
2023-01-10T16:50:42.402Z,94204.34
2023-01-10T16:53:14.348Z,94202.72
2023-01-10T16:55:49.859Z,94207.47
2023-01-10T16:58:18.210Z,94202.25
2023-01-10T17:00:47.856Z,94215.28
2023-01-10T17:03:18.538Z,94213.19
2023-01-10T17:05:45.706Z,94209.44
2023-01-10T17:08:21.331Z,94223.47
2023-01-10T17:10:52.498Z,94225.91
2023-01-10T17:13:31.035Z,94229.81
2023-01-10T17:15:58.845Z,94230.19
2023-01-10T17:18:28.913Z,94239.59
2023-01-10T17:20:58.321Z,94237.34
2023-01-10T17:23:26.942Z,94243.59
2023-01-10T17:26:02.442Z,94240.59
2023-01-10T17:28:29.946Z,94241.41
2023-01-10T17:30:57.389Z,94241.06
2023-01-10T17:33:25.528Z,94236.81
2023-01-10T17:35:56.692Z,94229.31
2023-01-10T17:38:25.621Z,94245.34
2023-01-10T17:40:53.206Z,94242.66
2023-01-10T17:43:21.899Z,94245.88
2023-01-10T17:45:51.477Z,94257.66
2023-01-10T17:48:19.549Z,94259.66
2023-01-10T17:50:49.038Z,94260.81
2023-01-10T17:53:18.000Z,94269.88
2023-01-10T17:55:49.563Z,94274.53
2023-01-10T17:58:18.126Z,94271.88
2023-01-10T18:00:46.058Z,94251.91
2023-01-10T18:03:13.137Z,94270.34
2023-01-10T18:05:39.980Z,94270.03
2023-01-10T18:08:08.056Z,94273.06
2023-01-10T18:10:37.721Z,94275.88
2023-01-10T18:13:04.414Z,94276.03
2023-01-10T18:15:31.185Z,94269.81
2023-01-10T18:17:58.058Z,94280.94
2023-01-10T18:20:24.820Z,94268.81
2023-01-10T18:23:10.217Z,94266.59
2023-01-10T18:25:37.053Z,94272.97
2023-01-10T18:28:03.836Z,94273.78
2023-01-10T18:30:30.562Z,94267.94
2023-01-10T18:32:57.462Z,94269.69
2023-01-10T18:35:24.519Z,94262.66
2023-01-10T18:37:51.485Z,94265.94
2023-01-10T18:40:18.385Z,94272.00
2023-01-10T18:42:45.883Z,94275.94
2023-01-10T18:45:12.803Z,94274.44
2023-01-10T18:47:39.509Z,94270.63
2023-01-10T18:50:06.499Z,94272.09
2023-01-10T18:52:33.187Z,94284.06
2023-01-10T18:55:02.251Z,94285.00
2023-01-10T18:57:32.597Z,94274.06
2023-01-10T18:59:59.445Z,94286.63
2023-01-10T19:02:26.235Z,94282.31
2023-01-10T19:04:53.146Z,94284.78
2023-01-10T19:07:19.860Z,94296.53
2023-01-10T19:09:46.679Z,94295.78
2023-01-10T19:12:13.715Z,94291.22
2023-01-10T19:14:40.720Z,94298.63
2023-01-10T19:17:07.579Z,94301.31
2023-01-10T19:19:34.321Z,94310.31
2023-01-10T19:22:01.282Z,94304.91
2023-01-10T19:24:30.093Z,94304.78
2023-01-10T19:26:56.967Z,94301.88
2023-01-10T19:29:24.193Z,94297.75
2023-01-10T19:31:52.744Z,94309.41
2023-01-10T19:34:19.653Z,94317.94
2023-01-10T19:36:46.473Z,94313.44
2023-01-10T19:39:13.898Z,94319.44
2023-01-10T19:41:41.582Z,94316.00
2023-01-10T19:44:12.978Z,94316.53
2023-01-10T19:46:40.871Z,94324.69
2023-01-10T19:49:08.398Z,94320.00
2023-01-10T19:51:40.475Z,94323.84
2023-01-10T19:54:08.613Z,94321.53
2023-01-10T19:56:36.002Z,94328.72
2023-01-10T19:59:02.967Z,94333.66
2023-01-10T20:01:31.276Z,94341.94
2023-01-10T20:04:01.689Z,94343.16
2023-01-10T20:06:31.072Z,94341.78
2023-01-10T20:08:58.512Z,94352.78
2023-01-10T20:11:27.628Z,94341.88
2023-01-10T20:13:54.545Z,94350.59
2023-01-10T20:16:23.356Z,94350.34
2023-01-10T20:18:51.847Z,94344.50
2023-01-10T20:21:19.283Z,94345.78
2023-01-10T20:23:46.847Z,94348.03
2023-01-10T20:26:22.444Z,94350.34
2023-01-10T20:28:50.857Z,94357.44
2023-01-10T20:31:23.703Z,94351.31
2023-01-10T20:33:50.753Z,94354.94
2023-01-10T20:36:20.747Z,94352.56
2023-01-10T20:38:47.933Z,94356.38
2023-01-10T20:41:26.043Z,94362.06
2023-01-10T20:43:54.154Z,94366.44
2023-01-10T20:46:24.386Z,94371.03
2023-01-10T20:48:52.607Z,94371.56
2023-01-10T20:51:23.089Z,94377.53
2023-01-10T20:53:50.447Z,94387.22
2023-01-10T20:56:23.832Z,94386.19
2023-01-10T20:58:51.836Z,94383.59
2023-01-10T21:01:33.097Z,94393.28
2023-01-10T21:04:02.193Z,94399.00
2023-01-10T21:06:29.061Z,94400.06
2023-01-10T21:08:56.286Z,94409.25
2023-01-10T21:11:24.364Z,94407.34
2023-01-10T21:13:51.062Z,94408.72
2023-01-10T21:16:20.821Z,94413.81
2023-01-10T21:18:48.020Z,94411.69
2023-01-10T21:21:17.642Z,94414.91
2023-01-10T21:23:44.749Z,94421.06
2023-01-10T21:26:14.330Z,94413.63
2023-01-10T21:28:45.970Z,94429.38
2023-01-10T21:31:16.060Z,94429.06
2023-01-10T21:33:43.502Z,94437.56
2023-01-10T21:36:10.535Z,94430.44
2023-01-10T21:38:37.316Z,94426.31
2023-01-10T21:41:14.016Z,94439.38
2023-01-10T21:43:45.279Z,94439.38
2023-01-10T21:46:12.996Z,94438.31
2023-01-10T21:48:40.010Z,94444.94
2023-01-10T21:51:06.822Z,94438.38
2023-01-10T21:53:33.675Z,94448.56
2023-01-10T21:56:00.422Z,94450.09
2023-01-10T21:58:28.153Z,94443.44
2023-01-10T22:00:59.189Z,94442.28
2023-01-10T22:03:26.747Z,94441.78
2023-01-10T22:05:54.087Z,94444.59
2023-01-10T22:08:20.821Z,94453.97
2023-01-10T22:10:47.937Z,94456.56
2023-01-10T22:13:14.726Z,94466.38
2023-01-10T22:15:42.684Z,94457.69
2023-01-10T22:18:09.569Z,94429.91
2023-01-10T22:20:36.399Z,94449.84
2023-01-10T22:23:03.220Z,94461.66
2023-01-10T22:25:29.988Z,94456.38
2023-01-10T22:27:56.775Z,94463.69
2023-01-10T22:30:23.446Z,94459.28
2023-01-10T22:35:39.558Z,94470.66
2023-01-10T22:38:06.254Z,94466.28
2023-01-10T22:40:33.033Z,94467.84
2023-01-10T22:42:59.747Z,94466.81
2023-01-10T22:45:26.621Z,94472.66
2023-01-10T22:47:53.341Z,94477.31
2023-01-10T22:50:20.230Z,94485.63
2023-01-10T22:52:50.586Z,94480.06
2023-01-10T22:55:18.111Z,94479.44
2023-01-10T22:57:48.102Z,94497.56
2023-01-10T23:00:15.738Z,94495.41
2023-01-10T23:02:42.475Z,94491.19
2023-01-10T23:05:09.400Z,94498.75
2023-01-10T23:07:36.484Z,94495.06
2023-01-10T23:10:05.116Z,94501.63
2023-01-10T23:12:31.864Z,94498.09
2023-01-10T23:14:58.555Z,94500.09
2023-01-10T23:17:25.502Z,94503.06
2023-01-10T23:19:52.211Z,94496.47
2023-01-10T23:22:19.520Z,94498.63
2023-01-10T23:24:46.213Z,94504.16
2023-01-10T23:27:12.921Z,94503.31
2023-01-10T23:29:39.667Z,94502.31
2023-01-10T23:32:06.907Z,94500.19
2023-01-10T23:34:33.719Z,94511.69
2023-01-10T23:37:00.576Z,94503.88
2023-01-10T23:39:27.256Z,94508.06
2023-01-10T23:41:54.142Z,94511.16
2023-01-10T23:44:20.828Z,94513.19
2023-01-10T23:46:47.703Z,94507.22
2023-01-10T23:49:14.378Z,94511.66
2023-01-10T23:51:41.142Z,94510.09
2023-01-10T23:54:07.865Z,94513.16
2023-01-10T23:56:34.723Z,94518.59
2023-01-10T23:59:01.478Z,94511.41
